sensor_id;sensor_type;location;lat;lon;timestamp;pressure;altitude;pressure_sealevel;temperature;humidity
16595;BME280;8410;52.532;13.336;2023-02-18T00:01:37;101043.13;;;8.49;78.07
16595;BME280;8410;52.532;13.336;2023-02-18T00:04:06;101044.38;;;8.33;78.72
16595;BME280;8410;52.532;13.336;2023-02-18T00:06:35;101042.16;;;8.79;76.24
16595;BME280;8410;52.532;13.336;2023-02-18T00:09:04;101041.81;;;8.64;77.76
16595;BME280;8410;52.532;13.336;2023-02-18T00:11:34;101042.78;;;8.69;76.81
16595;BME280;8410;52.532;13.336;2023-02-18T00:14:03;101036.28;;;8.48;77.97
16595;BME280;8410;52.532;13.336;2023-02-18T00:16:31;101034.84;;;8.59;77.76
16595;BME280;8410;52.532;13.336;2023-02-18T00:19:09;101038.31;;;8.61;77.48
16595;BME280;8410;52.532;13.336;2023-02-18T00:21:38;101046.03;;;8.96;76.38
16595;BME280;8410;52.532;13.336;2023-02-18T00:24:06;101058.81;;;8.95;75.32
16595;BME280;8410;52.532;13.336;2023-02-18T00:26:35;101054.19;;;8.80;76.83
16595;BME280;8410;52.532;13.336;2023-02-18T00:29:05;101053.38;;;8.49;77.37
16595;BME280;8410;52.532;13.336;2023-02-18T00:31:34;101051.16;;;8.96;75.73
16595;BME280;8410;52.532;13.336;2023-02-18T00:34:03;101054.44;;;8.56;77.67
16595;BME280;8410;52.532;13.336;2023-02-18T00:36:32;101064.28;;;8.41;78.80
16595;BME280;8410;52.532;13.336;2023-02-18T00:39:02;101056.19;;;9.30;75.71
16595;BME280;8410;52.532;13.336;2023-02-18T00:41:30;101059.50;;;8.54;77.39
16595;BME280;8410;52.532;13.336;2023-02-18T00:43:58;101066.94;;;8.44;77.50
16595;BME280;8410;52.532;13.336;2023-02-18T00:46:27;101071.50;;;8.24;79.37
16595;BME280;8410;52.532;13.336;2023-02-18T00:48:55;101070.34;;;8.44;78.97
16595;BME280;8410;52.532;13.336;2023-02-18T00:51:23;101075.56;;;8.47;79.49
16595;BME280;8410;52.532;13.336;2023-02-18T00:53:54;101085.44;;;8.33;78.07
16595;BME280;8410;52.532;13.336;2023-02-18T00:56:22;101093.59;;;8.49;78.02
16595;BME280;8410;52.532;13.336;2023-02-18T00:58:50;101094.19;;;8.10;79.31
16595;BME280;8410;52.532;13.336;2023-02-18T01:01:18;101093.91;;;8.31;77.94
16595;BME280;8410;52.532;13.336;2023-02-18T01:03:46;101081.41;;;8.42;78.70
16595;BME280;8410;52.532;13.336;2023-02-18T01:06:14;101093.91;;;8.31;79.19
16595;BME280;8410;52.532;13.336;2023-02-18T01:08:41;101088.28;;;8.76;78.10
16595;BME280;8410;52.532;13.336;2023-02-18T01:11:11;101074.53;;;8.74;77.01
16595;BME280;8410;52.532;13.336;2023-02-18T01:13:40;101079.72;;;9.10;76.10
16595;BME280;8410;52.532;13.336;2023-02-18T01:16:08;101068.59;;;9.10;75.93
16595;BME280;8410;52.532;13.336;2023-02-18T01:18:37;101081.19;;;8.66;76.75
16595;BME280;8410;52.532;13.336;2023-02-18T01:21:06;101075.38;;;8.09;77.35
16595;BME280;8410;52.532;13.336;2023-02-18T01:23:34;101091.94;;;8.21;79.24
16595;BME280;8410;52.532;13.336;2023-02-18T01:26:08;101094.81;;;8.31;77.76
16595;BME280;8410;52.532;13.336;2023-02-18T01:28:45;101086.13;;;8.26;77.25
16595;BME280;8410;52.532;13.336;2023-02-18T01:31:15;101087.66;;;7.91;78.74
16595;BME280;8410;52.532;13.336;2023-02-18T01:33:43;101088.72;;;7.98;79.50
16595;BME280;8410;52.532;13.336;2023-02-18T01:36:11;101088.53;;;8.22;78.90
16595;BME280;8410;52.532;13.336;2023-02-18T01:38:39;101089.72;;;8.03;78.70
16595;BME280;8410;52.532;13.336;2023-02-18T01:41:08;101090.44;;;7.97;80.04
16595;BME280;8410;52.532;13.336;2023-02-18T01:43:36;101077.97;;;8.41;77.95
16595;BME280;8410;52.532;13.336;2023-02-18T01:46:12;101076.25;;;8.40;78.66
16595;BME280;8410;52.532;13.336;2023-02-18T01:48:42;101080.19;;;8.60;75.88
16595;BME280;8410;52.532;13.336;2023-02-18T01:51:16;101081.81;;;8.57;77.55
16595;BME280;8410;52.532;13.336;2023-02-18T01:53:48;101082.91;;;8.03;78.34
16595;BME280;8410;52.532;13.336;2023-02-18T01:56:23;101083.84;;;8.37;78.40
16595;BME280;8410;52.532;13.336;2023-02-18T01:58:53;101075.44;;;8.74;77.32
16595;BME280;8410;52.532;13.336;2023-02-18T02:01:24;101080.56;;;8.11;79.02
16595;BME280;8410;52.532;13.336;2023-02-18T02:03:53;101078.47;;;7.98;79.69
16595;BME280;8410;52.532;13.336;2023-02-18T02:06:22;101066.97;;;8.15;79.85
16595;BME280;8410;52.532;13.336;2023-02-18T02:08:53;101079.34;;;7.98;80.39
16595;BME280;8410;52.532;13.336;2023-02-18T02:11:36;101078.22;;;8.18;79.48
16595;BME280;8410;52.532;13.336;2023-02-18T02:14:20;101080.88;;;8.53;77.42
16595;BME280;8410;52.532;13.336;2023-02-18T02:16:55;101079.91;;;8.83;76.38
16595;BME280;8410;52.532;13.336;2023-02-18T02:19:44;101092.25;;;8.33;77.99
16595;BME280;8410;52.532;13.336;2023-02-18T02:22:54;101092.25;;;8.33;78.95
16595;BME280;8410;52.532;13.336;2023-02-18T02:25:44;101096.34;;;7.96;79.18
16595;BME280;8410;52.532;13.336;2023-02-18T02:28:34;101095.22;;;8.45;78.18
16595;BME280;8410;52.532;13.336;2023-02-18T02:31:32;101099.13;;;7.73;80.42
16595;BME280;8410;52.532;13.336;2023-02-18T02:34:29;101084.31;;;8.54;76.12
16595;BME280;8410;52.532;13.336;2023-02-18T02:37:04;101092.09;;;8.27;77.90
16595;BME280;8410;52.532;13.336;2023-02-18T02:39:42;101088.75;;;8.29;77.98
16595;BME280;8410;52.532;13.336;2023-02-18T02:42:18;101088.19;;;8.09;79.05
16595;BME280;8410;52.532;13.336;2023-02-18T02:44:53;101089.06;;;8.10;78.19
16595;BME280;8410;52.532;13.336;2023-02-18T02:47:27;101097.25;;;8.27;77.99
16595;BME280;8410;52.532;13.336;2023-02-18T02:50:04;101088.72;;;7.67;79.24
16595;BME280;8410;52.532;13.336;2023-02-18T02:52:35;101092.63;;;7.85;79.90
16595;BME280;8410;52.532;13.336;2023-02-18T02:55:07;101096.56;;;8.02;78.87
16595;BME280;8410;52.532;13.336;2023-02-18T02:57:47;101099.75;;;7.95;77.78
16595;BME280;8410;52.532;13.336;2023-02-18T03:00:17;101093.25;;;8.06;77.88
16595;BME280;8410;52.532;13.336;2023-02-18T03:03:13;101096.09;;;7.87;77.85
16595;BME280;8410;52.532;13.336;2023-02-18T03:05:54;101096.72;;;7.78;79.81
16595;BME280;8410;52.532;13.336;2023-02-18T03:08:36;101106.63;;;7.96;77.98
16595;BME280;8410;52.532;13.336;2023-02-18T03:11:08;101090.59;;;7.74;79.74
16595;BME280;8410;52.532;13.336;2023-02-18T03:13:50;101095.94;;;8.41;77.33
16595;BME280;8410;52.532;13.336;2023-02-18T03:16:25;101098.44;;;8.09;77.83
16595;BME280;8410;52.532;13.336;2023-02-18T03:19:00;101097.56;;;8.07;77.19
16595;BME280;8410;52.532;13.336;2023-02-18T03:21:33;101092.75;;;7.59;79.17
16595;BME280;8410;52.532;13.336;2023-02-18T03:24:09;101100.88;;;7.74;79.70
16595;BME280;8410;52.532;13.336;2023-02-18T03:26:44;101102.88;;;7.85;78.22
16595;BME280;8410;52.532;13.336;2023-02-18T03:29:14;101100.69;;;7.68;78.90
16595;BME280;8410;52.532;13.336;2023-02-18T03:31:46;101098.53;;;7.82;77.85
16595;BME280;8410;52.532;13.336;2023-02-18T03:34:19;101102.53;;;7.72;79.08
16595;BME280;8410;52.532;13.336;2023-02-18T03:36:51;101097.56;;;7.50;78.77
16595;BME280;8410;52.532;13.336;2023-02-18T03:39:22;101095.50;;;7.67;78.28
16595;BME280;8410;52.532;13.336;2023-02-18T03:41:51;101091.94;;;7.90;77.52
16595;BME280;8410;52.532;13.336;2023-02-18T03:44:18;101093.06;;;8.00;77.76
16595;BME280;8410;52.532;13.336;2023-02-18T03:46:46;101089.25;;;7.86;77.34
16595;BME280;8410;52.532;13.336;2023-02-18T03:49:14;101084.22;;;7.89;78.17
16595;BME280;8410;52.532;13.336;2023-02-18T03:51:42;101079.00;;;7.86;76.74
16595;BME280;8410;52.532;13.336;2023-02-18T03:54:11;101079.88;;;7.58;77.22
16595;BME280;8410;52.532;13.336;2023-02-18T03:56:40;101081.19;;;7.45;77.62
16595;BME280;8410;52.532;13.336;2023-02-18T03:59:08;101079.00;;;7.57;78.29
16595;BME280;8410;52.532;13.336;2023-02-18T04:01:35;101077.41;;;7.91;76.72
16595;BME280;8410;52.532;13.336;2023-02-18T04:04:03;101086.34;;;7.75;76.62
16595;BME280;8410;52.532;13.336;2023-02-18T04:06:31;101090.91;;;7.84;76.05
16595;BME280;8410;52.532;13.336;2023-02-18T04:08:59;101090.91;;;7.84;77.35
16595;BME280;8410;52.532;13.336;2023-02-18T04:11:29;101089.25;;;7.86;76.36
16595;BME280;8410;52.532;13.336;2023-02-18T04:13:56;101086.91;;;8.24;75.43
16595;BME280;8410;52.532;13.336;2023-02-18T04:16:23;101089.78;;;8.68;74.78
16595;BME280;8410;52.532;13.336;2023-02-18T04:18:51;101093.25;;;8.38;73.68
16595;BME280;8410;52.532;13.336;2023-02-18T04:21:19;101093.50;;;8.46;74.74
16595;BME280;8410;52.532;13.336;2023-02-18T04:23:46;101094.00;;;8.02;75.42
16595;BME280;8410;52.532;13.336;2023-02-18T04:26:13;101096.25;;;8.22;75.15
16595;BME280;8410;52.532;13.336;2023-02-18T04:28:42;101100.16;;;7.80;76.01
16595;BME280;8410;52.532;13.336;2023-02-18T04:31:10;101092.72;;;8.48;74.71
16595;BME280;8410;52.532;13.336;2023-02-18T04:33:37;101097.84;;;8.48;73.79
16595;BME280;8410;52.532;13.336;2023-02-18T04:36:06;101101.09;;;8.12;74.25
16595;BME280;8410;52.532;13.336;2023-02-18T04:38:34;101111.19;;;7.78;77.15
16595;BME280;8410;52.532;13.336;2023-02-18T04:41:01;101108.53;;;8.33;74.18
16595;BME280;8410;52.532;13.336;2023-02-18T04:43:29;101114.50;;;7.73;78.31
16595;BME280;8410;52.532;13.336;2023-02-18T04:45:57;101108.00;;;7.85;77.08
16595;BME280;8410;52.532;13.336;2023-02-18T04:48:25;101118.25;;;8.15;75.81
16595;BME280;8410;52.532;13.336;2023-02-18T04:50:52;101106.34;;;8.79;73.20
16595;BME280;8410;52.532;13.336;2023-02-18T04:53:20;101116.28;;;8.35;74.64
16595;BME280;8410;52.532;13.336;2023-02-18T04:55:49;101107.09;;;8.75;72.41
16595;BME280;8410;52.532;13.336;2023-02-18T04:58:17;101113.94;;;8.43;74.60
16595;BME280;8410;52.532;13.336;2023-02-18T05:00:44;101110.59;;;8.77;72.77
16595;BME280;8410;52.532;13.336;2023-02-18T05:03:13;101119.75;;;8.37;74.43
16595;BME280;8410;52.532;13.336;2023-02-18T05:05:41;101114.19;;;8.52;73.29
16595;BME280;8410;52.532;13.336;2023-02-18T05:08:08;101123.59;;;8.51;74.47
16595;BME280;8410;52.532;13.336;2023-02-18T05:10:36;101108.50;;;8.97;72.19
16595;BME280;8410;52.532;13.336;2023-02-18T05:13:03;101104.47;;;9.07;70.96
16595;BME280;8410;52.532;13.336;2023-02-18T05:15:31;101107.53;;;8.58;73.71
16595;BME280;8410;52.532;13.336;2023-02-18T05:17:59;101109.34;;;8.63;72.28
16595;BME280;8410;52.532;13.336;2023-02-18T05:20:28;101113.56;;;8.60;72.66
16595;BME280;8410;52.532;13.336;2023-02-18T05:22:55;101105.69;;;8.54;73.96
16595;BME280;8410;52.532;13.336;2023-02-18T05:25:23;101097.13;;;8.87;73.54
16595;BME280;8410;52.532;13.336;2023-02-18T05:27:50;101106.19;;;8.41;73.58
16595;BME280;8410;52.532;13.336;2023-02-18T05:30:18;101101.06;;;8.41;74.36
16595;BME280;8410;52.532;13.336;2023-02-18T05:32:45;101087.25;;;9.02;71.23
16595;BME280;8410;52.532;13.336;2023-02-18T05:35:13;101094.56;;;7.92;75.10
16595;BME280;8410;52.532;13.336;2023-02-18T05:37:42;101100.38;;;8.47;73.33
16595;BME280;8410;52.532;13.336;2023-02-18T05:40:10;101084.81;;;9.09;71.14
16595;BME280;8410;52.532;13.336;2023-02-18T05:42:38;101092.75;;;9.18;71.39
16595;BME280;8410;52.532;13.336;2023-02-18T05:45:06;101088.78;;;8.31;74.05
16595;BME280;8410;52.532;13.336;2023-02-18T05:47:33;101088.75;;;8.94;72.38
16595;BME280;8410;52.532;13.336;2023-02-18T05:50:01;101076.97;;;9.02;71.25
16595;BME280;8410;52.532;13.336;2023-02-18T05:52:29;101082.31;;;9.48;70.48
16595;BME280;8410;52.532;13.336;2023-02-18T05:54:58;101078.44;;;9.29;69.94
16595;BME280;8410;52.532;13.336;2023-02-18T05:57:25;101087.88;;;9.28;70.30
16595;BME280;8410;52.532;13.336;2023-02-18T05:59:52;101089.41;;;8.87;70.52
16595;BME280;8410;52.532;13.336;2023-02-18T06:02:20;101091.13;;;8.87;72.73
16595;BME280;8410;52.532;13.336;2023-02-18T06:04:48;101090.19;;;9.56;69.47
16595;BME280;8410;52.532;13.336;2023-02-18T06:07:15;101088.75;;;8.94;70.37
16595;BME280;8410;52.532;13.336;2023-02-18T06:09:43;101089.56;;;9.28;70.17
16595;BME280;8410;52.532;13.336;2023-02-18T06:12:12;101090.13;;;9.53;70.13
16595;BME280;8410;52.532;13.336;2023-02-18T06:14:39;101086.03;;;9.24;69.77
16595;BME280;8410;52.532;13.336;2023-02-18T06:17:08;101088.66;;;9.26;70.40
16595;BME280;8410;52.532;13.336;2023-02-18T06:19:36;101082.09;;;9.78;69.22
16595;BME280;8410;52.532;13.336;2023-02-18T06:22:03;101081.31;;;9.41;70.38
16595;BME280;8410;52.532;13.336;2023-02-18T06:24:31;101085.16;;;9.62;69.64
16595;BME280;8410;52.532;13.336;2023-02-18T06:26:59;101084.50;;;9.31;70.16
16595;BME280;8410;52.532;13.336;2023-02-18T06:29:28;101089.72;;;8.65;71.92
16595;BME280;8410;52.532;13.336;2023-02-18T06:31:56;101083.75;;;9.00;71.11
16595;BME280;8410;52.532;13.336;2023-02-18T06:34:25;101089.63;;;9.31;70.30
16595;BME280;8410;52.532;13.336;2023-02-18T06:36:53;101089.25;;;8.79;71.99
16595;BME280;8410;52.532;13.336;2023-02-18T06:39:20;101095.78;;;9.01;72.15
16595;BME280;8410;52.532;13.336;2023-02-18T06:41:48;101089.63;;;9.31;70.96
16595;BME280;8410;52.532;13.336;2023-02-18T06:44:15;101086.31;;;9.75;69.19
16595;BME280;8410;52.532;13.336;2023-02-18T06:46:44;101082.34;;;9.12;69.38
16595;BME280;8410;52.532;13.336;2023-02-18T06:49:11;101076.47;;;9.55;71.18
16595;BME280;8410;52.532;13.336;2023-02-18T06:51:39;101066.94;;;9.90;68.95
16595;BME280;8410;52.532;13.336;2023-02-18T06:54:06;101063.72;;;9.22;70.11
16595;BME280;8410;52.532;13.336;2023-02-18T06:56:34;101078.91;;;9.49;70.69
16595;BME280;8410;52.532;13.336;2023-02-18T06:59:01;101077.16;;;9.87;69.14
16595;BME280;8410;52.532;13.336;2023-02-18T07:01:29;101079.03;;;9.94;69.29
16595;BME280;8410;52.532;13.336;2023-02-18T07:03:57;101073.28;;;10.08;68.37
16595;BME280;8410;52.532;13.336;2023-02-18T07:06:25;101077.78;;;9.76;68.55
16595;BME280;8410;52.532;13.336;2023-02-18T07:08:52;101071.97;;;9.45;71.34
16595;BME280;8410;52.532;13.336;2023-02-18T07:11:20;101068.31;;;9.73;70.42
16595;BME280;8410;52.532;13.336;2023-02-18T07:13:47;101067.03;;;9.97;68.79
16595;BME280;8410;52.532;13.336;2023-02-18T07:16:15;101065.69;;;9.71;69.66
16595;BME280;8410;52.532;13.336;2023-02-18T07:18:42;101071.22;;;9.50;70.87
16595;BME280;8410;52.532;13.336;2023-02-18T07:21:11;101067.91;;;9.55;71.01
16595;BME280;8410;52.532;13.336;2023-02-18T07:23:39;101059.06;;;9.43;70.12
16595;BME280;8410;52.532;13.336;2023-02-18T07:26:08;101055.69;;;9.44;70.50
16595;BME280;8410;52.532;13.336;2023-02-18T07:28:36;101052.59;;;9.61;70.09
16595;BME280;8410;52.532;13.336;2023-02-18T07:31:04;101059.22;;;9.49;70.13
16595;BME280;8410;52.532;13.336;2023-02-18T07:33:32;101045.66;;;9.99;69.55
16595;BME280;8410;52.532;13.336;2023-02-18T07:36:00;101055.13;;;9.20;71.58
16595;BME280;8410;52.532;13.336;2023-02-18T07:38:29;101053.91;;;9.43;72.23
16595;BME280;8410;52.532;13.336;2023-02-18T07:40:58;101046.94;;;9.36;73.18
16595;BME280;8410;52.532;13.336;2023-02-18T07:43:25;101048.78;;;9.43;71.88
16595;BME280;8410;52.532;13.336;2023-02-18T07:45:53;101034.63;;;10.05;70.98
16595;BME280;8410;52.532;13.336;2023-02-18T07:48:21;101024.69;;;10.23;71.15
16595;BME280;8410;52.532;13.336;2023-02-18T07:50:48;101028.91;;;10.20;70.68
16595;BME280;8410;52.532;13.336;2023-02-18T07:53:16;101027.69;;;10.45;70.31
16595;BME280;8410;52.532;13.336;2023-02-18T07:55:45;101023.22;;;10.34;69.80
16595;BME280;8410;52.532;13.336;2023-02-18T07:58:19;101021.66;;;9.99;71.44
16595;BME280;8410;52.532;13.336;2023-02-18T08:00:47;101019.09;;;9.99;72.59
16595;BME280;8410;52.532;13.336;2023-02-18T08:03:16;101019.94;;;9.99;73.55
16595;BME280;8410;52.532;13.336;2023-02-18T08:05:44;101019.31;;;10.11;73.33
16595;BME280;8410;52.532;13.336;2023-02-18T08:08:13;101010.41;;;10.39;74.28
16595;BME280;8410;52.532;13.336;2023-02-18T08:10:41;101006.06;;;9.89;73.49
16595;BME280;8410;52.532;13.336;2023-02-18T08:13:11;100999.22;;;10.35;74.01
16595;BME280;8410;52.532;13.336;2023-02-18T08:15:39;101004.72;;;9.66;75.56
16595;BME280;8410;52.532;13.336;2023-02-18T08:18:07;101003.53;;;9.50;78.37
16595;BME280;8410;52.532;13.336;2023-02-18T08:20:40;100993.59;;;10.11;75.81
16595;BME280;8410;52.532;13.336;2023-02-18T08:23:09;100985.69;;;10.00;74.57
16595;BME280;8410;52.532;13.336;2023-02-18T08:25:36;100981.69;;;10.16;75.66
16595;BME280;8410;52.532;13.336;2023-02-18T08:28:04;100983.03;;;9.96;74.99
16595;BME280;8410;52.532;13.336;2023-02-18T08:30:33;100975.34;;;9.97;76.70
16595;BME280;8410;52.532;13.336;2023-02-18T08:33:01;100969.47;;;10.51;74.93
16595;BME280;8410;52.532;13.336;2023-02-18T08:35:28;100969.72;;;10.68;75.14
16595;BME280;8410;52.532;13.336;2023-02-18T08:37:56;100967.06;;;10.62;75.36
16595;BME280;8410;52.532;13.336;2023-02-18T08:40:24;100963.91;;;10.81;75.14
16595;BME280;8410;52.532;13.336;2023-02-18T08:42:51;100957.81;;;10.75;75.61
16595;BME280;8410;52.532;13.336;2023-02-18T08:45:18;100959.97;;;10.49;76.29
16595;BME280;8410;52.532;13.336;2023-02-18T08:47:47;100960.56;;;10.34;78.56
16595;BME280;8410;52.532;13.336;2023-02-18T08:50:35;100956.47;;;10.44;77.63
16595;BME280;8410;52.532;13.336;2023-02-18T08:53:02;100955.00;;;10.59;76.91
16595;BME280;8410;52.532;13.336;2023-02-18T08:55:32;100956.72;;;10.60;77.46
16595;BME280;8410;52.532;13.336;2023-02-18T08:58:00;100958.53;;;10.16;78.16
16595;BME280;8410;52.532;13.336;2023-02-18T09:00:27;100951.19;;;10.34;78.54
16595;BME280;8410;52.532;13.336;2023-02-18T09:02:56;100950.31;;;10.37;79.01
16595;BME280;8410;52.532;13.336;2023-02-18T09:05:24;100949.75;;;10.05;79.67
16595;BME280;8410;52.532;13.336;2023-02-18T09:07:51;100948.94;;;9.62;83.18
16595;BME280;8410;52.532;13.336;2023-02-18T09:10:19;100938.50;;;9.53;82.75
16595;BME280;8410;52.532;13.336;2023-02-18T09:12:46;100923.47;;;10.21;80.93
16595;BME280;8410;52.532;13.336;2023-02-18T09:15:14;100929.50;;;10.76;79.59
16595;BME280;8410;52.532;13.336;2023-02-18T09:17:42;100912.56;;;10.91;79.30
16595;BME280;8410;52.532;13.336;2023-02-18T09:20:11;100914.75;;;10.65;80.03
16595;BME280;8410;52.532;13.336;2023-02-18T09:22:39;100914.28;;;10.92;79.66
16595;BME280;8410;52.532;13.336;2023-02-18T09:25:07;100904.97;;;11.01;79.08
16595;BME280;8410;52.532;13.336;2023-02-18T09:27:35;100906.09;;;10.59;81.38
16595;BME280;8410;52.532;13.336;2023-02-18T09:30:04;100912.00;;;10.54;81.21
16595;BME280;8410;52.532;13.336;2023-02-18T09:32:33;100903.06;;;10.90;80.24
16595;BME280;8410;52.532;13.336;2023-02-18T09:35:01;100900.47;;;10.87;79.49
16595;BME280;8410;52.532;13.336;2023-02-18T09:37:30;100898.59;;;10.76;80.35
16595;BME280;8410;52.532;13.336;2023-02-18T09:39:57;100888.31;;;10.76;80.45
16595;BME280;8410;52.532;13.336;2023-02-18T09:42:30;100870.53;;;10.95;80.53
16595;BME280;8410;52.532;13.336;2023-02-18T09:45:00;100851.88;;;11.14;81.69
16595;BME280;8410;52.532;13.336;2023-02-18T09:47:32;100857.00;;;11.14;81.43
16595;BME280;8410;52.532;13.336;2023-02-18T09:50:05;100845.84;;;11.12;80.65
16595;BME280;8410;52.532;13.336;2023-02-18T09:52:35;100836.38;;;11.10;80.53
16595;BME280;8410;52.532;13.336;2023-02-18T09:55:20;100821.81;;;11.13;81.37
16595;BME280;8410;52.532;13.336;2023-02-18T09:57:49;100825.16;;;11.06;80.79
16595;BME280;8410;52.532;13.336;2023-02-18T10:00:21;100826.41;;;10.67;88.56
16595;BME280;8410;52.532;13.336;2023-02-18T10:02:54;100809.16;;;12.32;93.58
16595;BME280;8410;52.532;13.336;2023-02-18T10:05:24;100809.09;;;12.25;79.59
16595;BME280;8410;52.532;13.336;2023-02-18T10:07:57;100800.78;;;12.81;85.07
16595;BME280;8410;52.532;13.336;2023-02-18T10:10:33;100793.25;;;13.49;81.46
16595;BME280;8410;52.532;13.336;2023-02-18T10:13:02;100796.72;;;13.67;78.23
16595;BME280;8410;52.532;13.336;2023-02-18T10:15:31;100792.25;;;12.97;79.17
16595;BME280;8410;52.532;13.336;2023-02-18T10:17:59;100791.38;;;12.97;79.44
16595;BME280;8410;52.532;13.336;2023-02-18T10:20:29;100781.97;;;13.16;77.92
16595;BME280;8410;52.532;13.336;2023-02-18T10:23:00;100775.13;;;13.27;79.50
16595;BME280;8410;52.532;13.336;2023-02-18T10:25:33;100763.09;;;13.72;74.88
16595;BME280;8410;52.532;13.336;2023-02-18T10:28:06;100745.69;;;12.88;75.19
16595;BME280;8410;52.532;13.336;2023-02-18T10:30:37;100742.94;;;12.41;77.60
16595;BME280;8410;52.532;13.336;2023-02-18T10:33:16;100732.59;;;12.45;77.23
16595;BME280;8410;52.532;13.336;2023-02-18T10:35:52;100727.97;;;11.86;80.42
16595;BME280;8410;52.532;13.336;2023-02-18T10:38:28;100710.81;;;11.89;80.32
16595;BME280;8410;52.532;13.336;2023-02-18T10:41:07;100701.13;;;11.64;80.96
16595;BME280;8410;52.532;13.336;2023-02-18T10:43:46;100693.44;;;11.65;81.59
16595;BME280;8410;52.532;13.336;2023-02-18T10:46:23;100681.47;;;11.78;81.25
16595;BME280;8410;52.532;13.336;2023-02-18T10:49:03;100683.81;;;11.44;82.25
16595;BME280;8410;52.532;13.336;2023-02-18T10:51:39;100674.25;;;11.33;83.15
16595;BME280;8410;52.532;13.336;2023-02-18T10:54:13;100660.44;;;11.27;82.06
16595;BME280;8410;52.532;13.336;2023-02-18T10:56:46;100663.91;;;11.26;84.06
16595;BME280;8410;52.532;13.336;2023-02-18T10:59:18;100664.69;;;11.18;83.99
16595;BME280;8410;52.532;13.336;2023-02-18T11:01:54;100645.00;;;11.27;84.26
16595;BME280;8410;52.532;13.336;2023-02-18T11:04:26;100640.69;;;11.25;83.36
16595;BME280;8410;52.532;13.336;2023-02-18T11:06:54;100624.47;;;11.38;84.69
16595;BME280;8410;52.532;13.336;2023-02-18T11:09:39;100605.66;;;11.53;83.51
16595;BME280;8410;52.532;13.336;2023-02-18T11:12:13;100606.38;;;11.31;83.62
16595;BME280;8410;52.532;13.336;2023-02-18T11:14:43;100588.09;;;10.97;86.15
16595;BME280;8410;52.532;13.336;2023-02-18T11:17:16;100584.97;;;11.44;84.50
16595;BME280;8410;52.532;13.336;2023-02-18T11:19:52;100572.81;;;11.24;85.30
16595;BME280;8410;52.532;13.336;2023-02-18T11:22:22;100569.56;;;11.47;84.94
16595;BME280;8410;52.532;13.336;2023-02-18T11:24:55;100562.38;;;11.06;85.02
16595;BME280;8410;52.532;13.336;2023-02-18T11:27:27;100552.31;;;11.37;85.23
16595;BME280;8410;52.532;13.336;2023-02-18T11:30:00;100552.16;;;11.17;85.86
16595;BME280;8410;52.532;13.336;2023-02-18T11:32:29;100542.78;;;11.30;85.33
16595;BME280;8410;52.532;13.336;2023-02-18T11:35:01;100528.22;;;11.35;84.65
16595;BME280;8410;52.532;13.336;2023-02-18T11:37:31;100524.72;;;11.20;86.03
16595;BME280;8410;52.532;13.336;2023-02-18T11:40:00;100509.25;;;11.20;86.25
16595;BME280;8410;52.532;13.336;2023-02-18T11:42:28;100510.97;;;11.21;87.24
16595;BME280;8410;52.532;13.336;2023-02-18T11:44:58;100502.16;;;10.89;86.90
16595;BME280;8410;52.532;13.336;2023-02-18T11:47:27;100511.47;;;10.70;89.08
16595;BME280;8410;52.532;13.336;2023-02-18T11:50:15;100501.34;;;10.96;88.52
16595;BME280;8410;52.532;13.336;2023-02-18T11:52:46;100481.81;;;11.25;88.03
16595;BME280;8410;52.532;13.336;2023-02-18T11:55:17;100461.16;;;11.22;88.34
16595;BME280;8410;52.532;13.336;2023-02-18T11:57:49;100457.88;;;11.53;88.23
16595;BME280;8410;52.532;13.336;2023-02-18T12:00:24;100456.13;;;11.45;85.76
16595;BME280;8410;52.532;13.336;2023-02-18T12:02:58;100447.53;;;11.45;87.48
16595;BME280;8410;52.532;13.336;2023-02-18T12:05:27;100442.41;;;11.50;87.58
16595;BME280;8410;52.532;13.336;2023-02-18T12:07:58;100440.34;;;10.86;91.83
16595;BME280;8410;52.532;13.336;2023-02-18T12:10:32;100437.13;;;11.30;90.00
16595;BME280;8410;52.532;13.336;2023-02-18T12:13:03;100426.81;;;11.26;89.82
16595;BME280;8410;52.532;13.336;2023-02-18T12:15:43;100413.19;;;11.52;87.82
16595;BME280;8410;52.532;13.336;2023-02-18T12:18:20;100416.44;;;11.08;90.97
16595;BME280;8410;52.532;13.336;2023-02-18T12:21:02;100410.56;;;11.41;90.27
16595;BME280;8410;52.532;13.336;2023-02-18T12:23:37;100411.16;;;10.87;95.55
16595;BME280;8410;52.532;13.336;2023-02-18T12:26:20;100411.38;;;11.36;92.30
16595;BME280;8410;52.532;13.336;2023-02-18T12:28:59;100409.19;;;10.49;96.03
16595;BME280;8410;52.532;13.336;2023-02-18T12:31:40;100403.19;;;10.53;100.00
16595;BME280;8410;52.532;13.336;2023-02-18T12:34:25;100398.50;;;11.28;97.66
16595;BME280;8410;52.532;13.336;2023-02-18T12:37:05;100391.31;;;10.67;99.28
16595;BME280;8410;52.532;13.336;2023-02-18T12:39:53;100382.22;;;11.40;99.85
16595;BME280;8410;52.532;13.336;2023-02-18T12:42:37;100381.22;;;11.07;98.94
16595;BME280;8410;52.532;13.336;2023-02-18T12:45:25;100368.06;;;10.61;100.00
16595;BME280;8410;52.532;13.336;2023-02-18T12:48:11;100359.75;;;11.11;100.00
16595;BME280;8410;52.532;13.336;2023-02-18T12:50:51;100359.72;;;10.99;100.00
16595;BME280;8410;52.532;13.336;2023-02-18T12:53:37;100362.44;;;11.40;100.00
16595;BME280;8410;52.532;13.336;2023-02-18T12:56:36;100346.00;;;11.06;100.00
16595;BME280;8410;52.532;13.336;2023-02-18T12:59:26;100346.97;;;11.31;100.00
16595;BME280;8410;52.532;13.336;2023-02-18T13:02:10;100342.50;;;10.86;100.00
16595;BME280;8410;52.532;13.336;2023-02-18T13:04:51;100343.50;;;11.26;100.00
16595;BME280;8410;52.532;13.336;2023-02-18T13:07:43;100322.09;;;11.59;100.00
16595;BME280;8410;52.532;13.336;2023-02-18T13:10:27;100333.97;;;11.02;100.00
16595;BME280;8410;52.532;13.336;2023-02-18T13:13:07;100327.13;;;11.07;100.00
16595;BME280;8410;52.532;13.336;2023-02-18T13:15:41;100322.06;;;11.45;100.00
16595;BME280;8410;52.532;13.336;2023-02-18T13:18:11;100323.75;;;11.36;100.00